Addison, Alabama
Current Conditions -  °F | °C
As of 8:55 PM on Friday 19 Dec 2014 (Local Time) from KCMD Reporting Station
Light Rain Light Rain  
Wind Chill: 37°   Ceiling: 1900
Heat Index: 37°   Visibility: 5mi
Dew Point: 35°   Wind: 0mph
Humidity: 91%   Direction: NA
Pressure: 30.21"   Gusts: NA
Location:  34.2°N, 87.18°W
Report Text: KCMD 200255Z AUTO 00000KT 5SM -RA BKN019 OVC024 03/02 A3021 RMK AO2 P0002 T00280015
Loading
Personal Weather Stations






























Interactive Weather Map New forecast layout! Learn more

10-Day Weather Forecast

Advertisements
Track Severe Weather on mobile